createdAt,value
2018-08-31T00:00:31.169Z,1005.78
2018-08-31T00:01:31.132Z,1005.82
2018-08-31T00:02:29.684Z,1005.7
2018-08-31T00:03:27.338Z,1005.86
2018-08-31T00:04:29.864Z,1005.82
2018-08-31T00:05:33.134Z,1005.76
2018-08-31T00:06:30.599Z,1005.79
2018-08-31T00:07:30.337Z,1005.82
2018-08-31T00:08:35.598Z,1005.67
2018-08-31T00:09:40.838Z,1005.75
2018-08-31T00:10:39.607Z,1005.72
2018-08-31T00:11:53.012Z,1005.74
2018-08-31T00:12:56.789Z,1005.67
2018-08-31T00:13:55.689Z,1005.66
2018-08-31T00:14:52.059Z,1005.72
2018-08-31T00:15:56.308Z,1005.72
2018-08-31T00:16:53.945Z,1005.66
2018-08-31T00:17:53.157Z,1005.6
2018-08-31T00:18:51.268Z,1005.69
2018-08-31T00:19:55.307Z,1005.64
2018-08-31T00:20:56.542Z,1005.64
2018-08-31T00:21:52.884Z,1005.64
2018-08-31T00:23:02.837Z,1005.57
2018-08-31T00:24:01.264Z,1005.67
2018-08-31T00:25:00.937Z,1005.69
2018-08-31T00:25:58.661Z,1005.67
2018-08-31T00:27:01.585Z,1005.67
2018-08-31T00:28:01.885Z,1005.63
2018-08-31T00:29:00.536Z,1005.64
2018-08-31T00:29:59.510Z,1005.68
2018-08-31T00:30:58.239Z,1005.66
2018-08-31T00:31:56.006Z,1005.7
2018-08-31T00:33:10.560Z,1005.7
2018-08-31T00:34:11.757Z,1005.63
2018-08-31T00:35:09.824Z,1005.67
2018-08-31T00:36:12.838Z,1005.77
2018-08-31T00:37:12.080Z,1005.67
2018-08-31T00:38:16.902Z,1005.64
2018-08-31T00:39:22.482Z,1005.73
2018-08-31T00:40:21.452Z,1005.71
2018-08-31T00:41:16.679Z,1005.74
2018-08-31T00:42:16.547Z,1005.74
2018-08-31T00:43:32.077Z,1005.71
2018-08-31T00:44:26.646Z,1005.74
2018-08-31T00:45:26.648Z,1005.79
2018-08-31T00:46:26.876Z,1005.71
2018-08-31T00:47:24.619Z,1005.74
2018-08-31T00:48:27.606Z,1005.74
2018-08-31T00:49:27.381Z,1005.79
2018-08-31T00:50:25.974Z,1005.76
2018-08-31T00:51:26.617Z,1005.79
2018-08-31T00:52:24.533Z,1005.77
2018-08-31T00:53:26.614Z,1005.77
2018-08-31T00:54:28.252Z,1005.7
2018-08-31T00:55:43.538Z,1005.68
2018-08-31T00:56:39.216Z,1005.73
2018-08-31T00:57:39.073Z,1005.68
2018-08-31T00:58:39.517Z,1005.8
2018-08-31T00:59:43.215Z,1005.76
2018-08-31T01:00:43.037Z,1005.77
2018-08-31T01:01:41.760Z,1005.77
2018-08-31T01:02:50.126Z,1005.74
2018-08-31T01:03:48.510Z,1005.71
2018-08-31T01:04:43.714Z,1005.76
2018-08-31T01:06:06.058Z,1005.68
2018-08-31T01:07:03.558Z,1005.74
2018-08-31T01:08:01.699Z,1005.62
2018-08-31T01:09:00.296Z,1005.7
2018-08-31T01:10:02.760Z,1005.67
2018-08-31T01:10:59.162Z,1005.7
2018-08-31T01:12:00.680Z,1005.7
2018-08-31T01:12:58.604Z,1005.68
2018-08-31T01:14:03.154Z,1005.65
2018-08-31T01:14:58.403Z,1005.61
2018-08-31T01:15:56.136Z,1005.58
2018-08-31T01:17:12.898Z,1005.64
2018-08-31T01:18:13.992Z,1005.61
2018-08-31T01:19:13.561Z,1005.67
2018-08-31T01:20:12.643Z,1005.64
2018-08-31T01:21:23.387Z,1005.65
2018-08-31T01:22:22.979Z,1005.68
2018-08-31T01:23:21.245Z,1005.68
2018-08-31T01:24:21.981Z,1005.73
2018-08-31T01:25:27.132Z,1005.65
2018-08-31T01:26:24.600Z,1005.65
2018-08-31T01:27:32.075Z,1005.77
2018-08-31T01:28:27.126Z,1005.7
2018-08-31T01:29:27.122Z,1005.67
2018-08-31T01:30:45.851Z,1005.68
2018-08-31T01:31:34.710Z,1005.73
2018-08-31T01:32:42.410Z,1005.64
2018-08-31T01:33:42.126Z,1005.74
2018-08-31T01:34:45.472Z,1005.73
2018-08-31T01:35:43.410Z,1005.7
2018-08-31T01:36:45.183Z,1005.79
2018-08-31T01:37:43.172Z,1005.71
2018-08-31T01:38:42.025Z,1005.62
2018-08-31T01:39:40.849Z,1005.67
2018-08-31T01:40:37.094Z,1005.68
2018-08-31T01:41:39.385Z,1005.67
2018-08-31T01:42:34.231Z,1005.71
2018-08-31T01:43:49.822Z,1005.64
2018-08-31T01:44:45.147Z,1005.7
2018-08-31T01:45:43.676Z,1005.64
2018-08-31T01:46:41.647Z,1005.59
2018-08-31T01:47:40.616Z,1005.62
2018-08-31T01:48:41.083Z,1005.65
2018-08-31T01:49:40.987Z,1005.68
2018-08-31T01:50:42.683Z,1005.67
2018-08-31T01:51:41.703Z,1005.71
2018-08-31T01:52:45.590Z,1005.65
2018-08-31T01:53:47.406Z,1005.64
2018-08-31T01:54:48.338Z,1005.64
2018-08-31T01:55:46.773Z,1005.58
2018-08-31T01:56:49.354Z,1005.59
2018-08-31T01:57:51.433Z,1005.61
2018-08-31T01:58:50.034Z,1005.65
2018-08-31T01:59:49.422Z,1005.64
2018-08-31T02:00:46.525Z,1005.65
2018-08-31T02:02:07.506Z,1005.62
2018-08-31T02:02:53.590Z,1005.67
2018-08-31T02:03:52.965Z,1005.64
2018-08-31T02:04:50.462Z,1005.68
2018-08-31T02:05:52.305Z,1005.56
2018-08-31T02:06:58.588Z,1005.59
2018-08-31T02:07:56.518Z,1005.7
2018-08-31T02:09:00.205Z,1005.61
2018-08-31T02:10:16.234Z,1005.58
2018-08-31T02:11:15.729Z,1005.67
2018-08-31T02:12:33.445Z,1005.64
2018-08-31T02:13:33.440Z,1005.67
2018-08-31T02:14:31.965Z,1005.67
2018-08-31T02:15:38.980Z,1005.62
2018-08-31T02:16:37.205Z,1005.58
2018-08-31T02:17:51.366Z,1005.61
2018-08-31T02:18:57.535Z,1005.64
2018-08-31T02:19:55.442Z,1005.62
2018-08-31T02:20:53.060Z,1005.64
2018-08-31T02:21:57.543Z,1005.67
2018-08-31T02:22:55.642Z,1005.62
2018-08-31T02:24:13.780Z,1005.64
2018-08-31T02:25:14.687Z,1005.61
2018-08-31T02:26:20.131Z,1005.61
2018-08-31T02:27:35.817Z,1005.61
2018-08-31T02:28:43.145Z,1005.61
2018-08-31T02:29:44.781Z,1005.59
2018-08-31T02:30:42.580Z,1005.58
2018-08-31T02:31:40.277Z,1005.56
2018-08-31T02:32:39.431Z,1005.59
2018-08-31T02:33:43.374Z,1005.58
2018-08-31T02:34:46.785Z,1005.55
2018-08-31T02:35:58.823Z,1005.57
2018-08-31T02:36:57.035Z,1005.62
2018-08-31T02:37:59.522Z,1005.63
2018-08-31T02:39:00.768Z,1005.59
2018-08-31T02:40:01.677Z,1005.62
2018-08-31T02:40:59.248Z,1005.68
2018-08-31T02:41:56.797Z,1005.63
2018-08-31T02:42:54.962Z,1005.68
2018-08-31T02:43:57.445Z,1005.61
2018-08-31T02:44:59.215Z,1005.66
2018-08-31T02:46:15.523Z,1005.61
2018-08-31T02:47:09.910Z,1005.66
2018-08-31T02:48:10.261Z,1005.62
2018-08-31T02:49:15.176Z,1005.62
2018-08-31T02:50:12.893Z,1005.65
2018-08-31T02:51:12.816Z,1005.61
2018-08-31T02:52:15.756Z,1005.65
2018-08-31T02:53:10.643Z,1005.59
2018-08-31T02:54:12.675Z,1005.63
2018-08-31T02:55:07.304Z,1005.62
2018-08-31T02:56:24.767Z,1005.66
2018-08-31T02:57:21.148Z,1005.62
2018-08-31T02:58:22.739Z,1005.65
2018-08-31T02:59:33.561Z,1005.63
2018-08-31T03:00:31.427Z,1005.59
2018-08-31T03:01:29.150Z,1005.69
2018-08-31T03:02:26.835Z,1005.65
2018-08-31T03:03:25.000Z,1005.63
2018-08-31T03:04:22.842Z,1005.69
2018-08-31T03:05:27.856Z,1005.68
2018-08-31T03:06:26.515Z,1005.66
2018-08-31T03:07:24.435Z,1005.66
2018-08-31T03:08:37.459Z,1005.65
2018-08-31T03:09:34.272Z,1005.71
2018-08-31T03:10:37.958Z,1005.62
2018-08-31T03:11:36.910Z,1005.57
2018-08-31T03:12:34.452Z,1005.57
2018-08-31T03:13:35.965Z,1005.57
2018-08-31T03:14:33.984Z,1005.56
2018-08-31T03:15:34.533Z,1005.56
2018-08-31T03:16:32.409Z,1005.54
2018-08-31T03:17:32.232Z,1005.51
2018-08-31T03:18:34.752Z,1005.56
2018-08-31T03:19:34.014Z,1005.57
2018-08-31T03:20:34.922Z,1005.56
2018-08-31T03:21:33.009Z,1005.53
2018-08-31T03:22:46.304Z,1005.48
2018-08-31T03:23:44.384Z,1005.51
2018-08-31T03:24:42.292Z,1005.62
2018-08-31T03:25:40.824Z,1005.56
2018-08-31T03:26:42.816Z,1005.59
2018-08-31T03:27:42.149Z,1005.62
2018-08-31T03:28:57.812Z,1005.65
2018-08-31T03:30:00.164Z,1005.57
2018-08-31T03:30:58.209Z,1005.56
2018-08-31T03:31:56.561Z,1005.51
2018-08-31T03:32:58.750Z,1005.54
2018-08-31T03:33:53.525Z,1005.56
2018-08-31T03:35:10.210Z,1005.5
2018-08-31T03:36:10.271Z,1005.56
2018-08-31T03:37:10.454Z,1005.57
2018-08-31T03:38:09.580Z,1005.56
2018-08-31T03:39:10.638Z,1005.56
2018-08-31T03:40:08.496Z,1005.5
2018-08-31T03:41:11.399Z,1005.6
2018-08-31T03:42:10.802Z,1005.53
2018-08-31T03:43:09.289Z,1005.48
2018-08-31T03:44:03.498Z,1005.57
2018-08-31T03:45:17.948Z,1005.45
2018-08-31T03:46:15.571Z,1005.5
2018-08-31T03:47:15.229Z,1005.48
2018-08-31T03:48:12.801Z,1005.44
2018-08-31T03:49:10.971Z,1005.53
2018-08-31T03:50:13.265Z,1005.44
2018-08-31T03:51:13.044Z,1005.41
2018-08-31T03:52:13.120Z,1005.45
2018-08-31T03:53:13.399Z,1005.45
2018-08-31T03:54:13.242Z,1005.4
2018-08-31T03:55:11.675Z,1005.43
2018-08-31T03:56:16.711Z,1005.5
2018-08-31T03:57:29.443Z,1005.45
2018-08-31T03:58:31.622Z,1005.47
2018-08-31T03:59:29.675Z,1005.45
2018-08-31T04:00:27.570Z,1005.5
2018-08-31T04:01:33.023Z,1005.5
2018-08-31T04:02:38.605Z,1005.42
2018-08-31T04:03:36.819Z,1005.54
2018-08-31T04:04:41.595Z,1005.48
2018-08-31T04:05:42.688Z,1005.51
2018-08-31T04:06:41.018Z,1005.48
2018-08-31T04:07:41.423Z,1005.6
2018-08-31T04:08:39.399Z,1005.53
2018-08-31T04:09:40.074Z,1005.45
2018-08-31T04:10:55.268Z,1005.56
2018-08-31T04:11:50.563Z,1005.53
2018-08-31T04:12:54.164Z,1005.51
2018-08-31T04:13:58.604Z,1005.54
2018-08-31T04:14:57.064Z,1005.54
2018-08-31T04:15:57.873Z,1005.57
2018-08-31T04:16:56.286Z,1005.62
2018-08-31T04:17:56.620Z,1005.62
2018-08-31T04:19:02.047Z,1005.63
2018-08-31T04:20:02.123Z,1005.53
2018-08-31T04:21:04.787Z,1005.62
2018-08-31T04:22:05.799Z,1005.56
2018-08-31T04:23:00.609Z,1005.65
2018-08-31T04:24:12.586Z,1005.57
2018-08-31T04:25:08.303Z,1005.57
2018-08-31T04:26:12.921Z,1005.53
2018-08-31T04:27:10.950Z,1005.65
2018-08-31T04:28:15.919Z,1005.65
2018-08-31T04:29:15.982Z,1005.63
2018-08-31T04:30:16.524Z,1005.6
2018-08-31T04:31:12.774Z,1005.65
2018-08-31T04:32:16.237Z,1005.62
2018-08-31T04:33:16.357Z,1005.69
2018-08-31T04:34:14.779Z,1005.68
2018-08-31T04:35:30.484Z,1005.68
2018-08-31T04:36:24.565Z,1005.66
2018-08-31T04:37:23.158Z,1005.7
2018-08-31T04:38:28.229Z,1005.68
2018-08-31T04:39:30.559Z,1005.69
2018-08-31T04:40:28.145Z,1005.69
2018-08-31T04:41:26.505Z,1005.69
2018-08-31T04:42:24.018Z,1005.7
2018-08-31T04:43:19.818Z,1005.72
2018-08-31T04:44:23.023Z,1005.7
2018-08-31T04:45:26.425Z,1005.78
2018-08-31T04:46:24.025Z,1005.69
2018-08-31T04:47:22.587Z,1005.75
2018-08-31T04:48:43.746Z,1005.73
2018-08-31T04:49:34.148Z,1005.76
2018-08-31T04:50:34.181Z,1005.76
2018-08-31T04:51:36.536Z,1005.75
2018-08-31T04:52:45.955Z,1005.79
2018-08-31T04:53:45.659Z,1005.75
2018-08-31T04:54:53.082Z,1005.76
2018-08-31T04:55:56.912Z,1005.75
2018-08-31T04:56:56.440Z,1005.76
2018-08-31T04:57:50.932Z,1005.72
2018-08-31T04:59:07.791Z,1005.82
2018-08-31T05:00:02.644Z,1005.86
2018-08-31T05:01:07.743Z,1005.87
2018-08-31T05:02:06.950Z,1005.86
2018-08-31T05:03:04.689Z,1005.82
2018-08-31T05:04:07.002Z,1005.75
2018-08-31T05:05:12.302Z,1005.78
2018-08-31T05:06:12.420Z,1005.79
2018-08-31T05:07:13.477Z,1005.73
2018-08-31T05:08:14.803Z,1005.75
2018-08-31T05:09:34.246Z,1005.82
2018-08-31T05:10:32.224Z,1005.87
2018-08-31T05:11:30.295Z,1005.76
2018-08-31T05:12:27.986Z,1005.87
2018-08-31T05:13:26.982Z,1005.89
2018-08-31T05:14:22.567Z,1005.89
2018-08-31T05:15:25.452Z,1005.86
2018-08-31T05:16:26.697Z,1005.82
2018-08-31T05:17:29.866Z,1005.78
2018-08-31T05:18:29.197Z,1005.89
2018-08-31T05:19:27.166Z,1005.78
2018-08-31T05:20:27.895Z,1005.87
2018-08-31T05:21:25.812Z,1005.76
2018-08-31T05:22:23.767Z,1005.92
2018-08-31T05:23:33.324Z,1005.76
2018-08-31T05:24:32.431Z,1005.82
2018-08-31T05:25:33.034Z,1005.82
2018-08-31T05:26:31.596Z,1005.81
2018-08-31T05:27:31.410Z,1005.75
2018-08-31T05:28:29.515Z,1005.87
2018-08-31T05:29:28.854Z,1005.76
2018-08-31T05:30:26.265Z,1005.82
2018-08-31T05:31:23.898Z,1005.86
2018-08-31T05:32:22.781Z,1005.89
2018-08-31T05:33:20.772Z,1005.76
2018-08-31T05:34:18.765Z,1005.87
2018-08-31T05:35:16.890Z,1005.92
2018-08-31T05:36:28.533Z,1005.79
2018-08-31T05:37:25.597Z,1005.86
2018-08-31T05:38:23.735Z,1005.87
2018-08-31T05:39:25.701Z,1005.79
2018-08-31T05:40:31.359Z,1005.86
2018-08-31T05:41:26.689Z,1005.87
2018-08-31T05:42:26.861Z,1005.89
2018-08-31T05:43:36.348Z,1005.89
2018-08-31T05:44:38.433Z,1006
2018-08-31T05:45:37.644Z,1006
2018-08-31T05:46:38.587Z,1005.96
2018-08-31T05:47:39.045Z,1005.92
2018-08-31T05:48:53.280Z,1005.86
2018-08-31T05:49:56.299Z,1005.96
2018-08-31T05:50:55.431Z,1005.97
2018-08-31T05:51:55.214Z,1005.9
2018-08-31T05:53:04.894Z,1005.9
2018-08-31T05:54:03.501Z,1005.94
2018-08-31T05:55:02.253Z,1005.97
2018-08-31T05:55:57.320Z,1005.96
2018-08-31T05:57:06.668Z,1005.96
2018-08-31T05:58:02.341Z,1006.03
2018-08-31T05:59:10.692Z,1006
2018-08-31T06:00:08.226Z,1005.97
2018-08-31T06:01:09.395Z,1005.99
2018-08-31T06:02:16.558Z,1005.99
2018-08-31T06:03:15.032Z,1006
2018-08-31T06:04:26.684Z,1006.05
2018-08-31T06:05:21.393Z,1006.09
2018-08-31T06:06:20.969Z,1006.05
2018-08-31T06:07:19.568Z,1006.05
2018-08-31T06:08:23.296Z,1006.02
2018-08-31T06:09:21.779Z,1006.14
2018-08-31T06:10:22.805Z,1006.09
2018-08-31T06:11:22.171Z,1006.08
2018-08-31T06:12:20.797Z,1006.11
2018-08-31T06:13:18.893Z,1006.03
2018-08-31T06:14:16.749Z,1006.05
2018-08-31T06:15:22.707Z,1006.09
2018-08-31T06:16:18.157Z,1006.06
2018-08-31T06:17:15.834Z,1006.08
2018-08-31T06:18:29.297Z,1006.11
2018-08-31T06:19:23.831Z,1006.18
2018-08-31T06:20:26.307Z,1006.02
2018-08-31T06:20:51.586Z,1006.09
2018-08-31T06:21:51.129Z,1006.17
2018-08-31T06:22:59.930Z,1006.14
2018-08-31T06:23:59.754Z,1006.09
2018-08-31T06:25:02.122Z,1006.14
2018-08-31T06:25:57.675Z,1006.05
2018-08-31T06:26:58.161Z,1006.14
2018-08-31T06:27:58.024Z,1006.08
2018-08-31T06:28:55.893Z,1006.15
2018-08-31T06:29:54.431Z,1006.14
2018-08-31T06:30:57.248Z,1006.17
2018-08-31T06:32:02.736Z,1006.2
2018-08-31T06:33:20.019Z,1006.14
2018-08-31T06:34:15.425Z,1006.15
2018-08-31T06:35:14.960Z,1006.15
2018-08-31T06:36:16.833Z,1006.18
2018-08-31T06:37:18.345Z,1006.17
2018-08-31T06:38:16.748Z,1006.11
2018-08-31T06:39:18.719Z,1006.23
2018-08-31T06:40:21.398Z,1006.18
2018-08-31T06:41:25.236Z,1006.18
2018-08-31T06:42:25.176Z,1006.18
2018-08-31T06:43:31.303Z,1006.23
2018-08-31T06:44:28.654Z,1006.21
2018-08-31T06:45:25.916Z,1006.3
2018-08-31T06:46:38.733Z,1006.24
2018-08-31T06:47:33.428Z,1006.33
2018-08-31T06:48:35.333Z,1006.24
2018-08-31T06:49:32.834Z,1006.27
2018-08-31T06:50:40.304Z,1006.31
2018-08-31T06:51:41.236Z,1006.24
2018-08-31T06:52:40.777Z,1006.27
2018-08-31T06:53:40.558Z,1006.2
2018-08-31T06:54:39.293Z,1006.21
2018-08-31T06:55:34.071Z,1006.24
2018-08-31T06:56:35.878Z,1006.24
2018-08-31T06:57:36.981Z,1006.24
2018-08-31T06:58:52.433Z,1006.21
2018-08-31T06:59:47.211Z,1006.21
2018-08-31T07:00:46.576Z,1006.23
2018-08-31T07:01:50.582Z,1006.26
2018-08-31T07:02:50.698Z,1006.21
2018-08-31T07:03:49.665Z,1006.18
2018-08-31T07:04:49.381Z,1006.2
2018-08-31T07:05:46.714Z,1006.23
2018-08-31T07:06:56.037Z,1006.27
2018-08-31T07:07:55.804Z,1006.23
2018-08-31T07:09:07.443Z,1006.18
2018-08-31T07:10:03.570Z,1006.27
2018-08-31T07:11:05.942Z,1006.21
2018-08-31T07:12:03.944Z,1006.23
2018-08-31T07:13:04.244Z,1006.24
2018-08-31T07:14:07.233Z,1006.27
2018-08-31T07:15:05.295Z,1006.3
2018-08-31T07:16:03.539Z,1006.27
2018-08-31T07:17:01.260Z,1006.27
2018-08-31T07:17:57.950Z,1006.33
2018-08-31T07:19:07.785Z,1006.34
2018-08-31T07:20:08.073Z,1006.24
2018-08-31T07:21:06.509Z,1006.3
2018-08-31T07:22:04.513Z,1006.21
2018-08-31T07:23:04.526Z,1006.31
2018-08-31T07:24:05.399Z,1006.36
2018-08-31T07:25:07.333Z,1006.31
2018-08-31T07:26:14.033Z,1006.31
2018-08-31T07:27:25.544Z,1006.4
2018-08-31T07:28:23.916Z,1006.3
2018-08-31T07:29:22.487Z,1006.29
2018-08-31T07:30:20.708Z,1006.29
2018-08-31T07:31:23.679Z,1006.37
2018-08-31T07:32:19.094Z,1006.33
2018-08-31T07:33:16.738Z,1006.37
2018-08-31T07:34:14.594Z,1006.45
2018-08-31T07:35:14.386Z,1006.42
2018-08-31T07:36:14.251Z,1006.39
2018-08-31T07:37:09.029Z,1006.39
2018-08-31T07:38:06.379Z,1006.4
2018-08-31T07:39:08.575Z,1006.46
2018-08-31T07:40:28.936Z,1006.45
2018-08-31T07:41:23.077Z,1006.43
2018-08-31T07:42:25.938Z,1006.52
2018-08-31T07:43:27.771Z,1006.49
2018-08-31T07:44:26.522Z,1006.56
2018-08-31T07:45:24.633Z,1006.51
2018-08-31T07:46:26.521Z,1006.49
2018-08-31T07:47:24.322Z,1006.46
2018-08-31T07:48:19.989Z,1006.55
2018-08-31T07:49:21.014Z,1006.59
2018-08-31T07:50:20.820Z,1006.54
2018-08-31T07:51:25.439Z,1006.56
2018-08-31T07:52:20.733Z,1006.52
2018-08-31T07:53:41.012Z,1006.54
2018-08-31T07:54:35.635Z,1006.48
2018-08-31T07:55:44.979Z,1006.56
2018-08-31T07:56:45.806Z,1006.54
2018-08-31T07:57:48.895Z,1006.59
2018-08-31T07:58:49.136Z,1006.55
2018-08-31T07:59:47.324Z,1006.54
2018-08-31T08:00:42.561Z,1006.51
2018-08-31T08:01:44.849Z,1006.56
2018-08-31T08:02:57.007Z,1006.6
2018-08-31T08:03:55.166Z,1006.62
2018-08-31T08:04:55.281Z,1006.55
2018-08-31T08:05:54.330Z,1006.65
2018-08-31T08:06:55.063Z,1006.54
2018-08-31T08:07:55.771Z,1006.57
2018-08-31T08:08:56.984Z,1006.66
2018-08-31T08:09:56.224Z,1006.6
2018-08-31T08:11:00.875Z,1006.68
2018-08-31T08:12:05.609Z,1006.62
2018-08-31T08:13:04.541Z,1006.62
2018-08-31T08:14:22.144Z,1006.77
2018-08-31T08:15:23.473Z,1006.68
2018-08-31T08:16:24.274Z,1006.63
2018-08-31T08:17:22.821Z,1006.6
2018-08-31T08:18:20.146Z,1006.61
2018-08-31T08:19:21.545Z,1006.64
2018-08-31T08:20:20.538Z,1006.64
2018-08-31T08:21:20.833Z,1006.65
2018-08-31T08:22:26.221Z,1006.61
2018-08-31T08:23:30.115Z,1006.72
2018-08-31T08:24:42.944Z,1006.66
2018-08-31T08:25:37.069Z,1006.69
2018-08-31T08:26:38.527Z,1006.64
2018-08-31T08:27:41.651Z,1006.67
2018-08-31T08:28:41.730Z,1006.67
2018-08-31T08:29:41.563Z,1006.65
2018-08-31T08:30:42.313Z,1006.65
2018-08-31T08:31:38.845Z,1006.61
2018-08-31T08:32:45.019Z,1006.66
2018-08-31T08:33:44.689Z,1006.62
2018-08-31T08:34:41.252Z,1006.62
2018-08-31T08:35:53.296Z,1006.66
2018-08-31T08:36:45.738Z,1006.59
2018-08-31T08:37:48.666Z,1006.6
2018-08-31T08:38:47.220Z,1006.58
2018-08-31T08:39:49.666Z,1006.61
2018-08-31T08:40:53.225Z,1006.67
2018-08-31T08:41:51.512Z,1006.69
2018-08-31T08:42:49.349Z,1006.64
2018-08-31T08:43:51.560Z,1006.68
2018-08-31T08:44:49.045Z,1006.67
2018-08-31T08:45:46.389Z,1006.62
2018-08-31T08:46:40.766Z,1006.65
2018-08-31T08:47:38.537Z,1006.64
2018-08-31T08:48:56.644Z,1006.68
2018-08-31T08:49:51.730Z,1006.61
2018-08-31T08:50:51.867Z,1006.63
2018-08-31T08:51:52.813Z,1006.61
2018-08-31T08:52:54.437Z,1006.69
2018-08-31T08:54:00.590Z,1006.62
2018-08-31T08:54:58.520Z,1006.71
2018-08-31T08:55:59.912Z,1006.68
2018-08-31T08:56:57.858Z,1006.68
2018-08-31T08:57:56.331Z,1006.71
2018-08-31T08:58:51.747Z,1006.72
2018-08-31T08:59:53.125Z,1006.69
2018-08-31T09:00:53.775Z,1006.69
2018-08-31T09:01:52.097Z,1006.66
2018-08-31T09:02:47.275Z,1006.69
2018-08-31T09:03:45.014Z,1006.66
2018-08-31T09:05:04.111Z,1006.63
2018-08-31T09:05:59.479Z,1006.75
2018-08-31T09:06:59.010Z,1006.71
2018-08-31T09:07:58.243Z,1006.65
2018-08-31T09:08:55.942Z,1006.63
2018-08-31T09:09:50.630Z,1006.68
2018-08-31T09:10:51.260Z,1006.66
2018-08-31T09:11:50.825Z,1006.59
2018-08-31T09:12:56.224Z,1006.63
2018-08-31T09:13:55.771Z,1006.56
2018-08-31T09:14:54.534Z,1006.56
2018-08-31T09:16:00.826Z,1006.62
2018-08-31T09:17:04.499Z,1006.69
2018-08-31T09:18:07.941Z,1006.57
2018-08-31T09:19:06.640Z,1006.59
2018-08-31T09:20:17.907Z,1006.63
2018-08-31T09:21:14.640Z,1006.65
2018-08-31T09:22:13.481Z,1006.59
2018-08-31T09:23:11.522Z,1006.57
2018-08-31T09:24:14.398Z,1006.49
2018-08-31T09:25:09.962Z,1006.65
2018-08-31T09:26:11.222Z,1006.52
2018-08-31T09:27:10.851Z,1006.52
2018-08-31T09:28:13.755Z,1006.55
2018-08-31T09:29:13.552Z,1006.57
2018-08-31T09:30:12.779Z,1006.62
2018-08-31T09:31:11.985Z,1006.59
2018-08-31T09:32:09.680Z,1006.51
2018-08-31T09:33:19.263Z,1006.55
2018-08-31T09:34:17.462Z,1006.59
2018-08-31T09:35:17.474Z,1006.49
2018-08-31T09:36:16.671Z,1006.49
2018-08-31T09:37:26.281Z,1006.56
2018-08-31T09:38:26.211Z,1006.48
2018-08-31T09:39:26.696Z,1006.52
2018-08-31T09:40:30.924Z,1006.55
2018-08-31T09:41:31.577Z,1006.56
2018-08-31T09:42:33.036Z,1006.54
2018-08-31T09:43:34.212Z,1006.55
2018-08-31T09:44:31.806Z,1006.5
2018-08-31T09:45:32.441Z,1006.58
2018-08-31T09:46:34.204Z,1006.55
2018-08-31T09:47:33.934Z,1006.53
2018-08-31T09:48:49.564Z,1006.55
2018-08-31T09:49:47.356Z,1006.48
2018-08-31T09:50:45.304Z,1006.41
2018-08-31T09:51:51.132Z,1006.5
2018-08-31T09:52:49.927Z,1006.46
2018-08-31T09:53:49.188Z,1006.47
2018-08-31T09:54:50.387Z,1006.46
2018-08-31T09:55:48.334Z,1006.44
2018-08-31T09:56:56.906Z,1006.35
2018-08-31T09:57:55.788Z,1006.29
2018-08-31T09:58:53.948Z,1006.38
2018-08-31T09:59:51.716Z,1006.34
2018-08-31T10:00:52.602Z,1006.47
2018-08-31T10:01:50.137Z,1006.44
2018-08-31T10:02:47.917Z,1006.35
2018-08-31T10:03:58.705Z,1006.41
2018-08-31T10:04:56.220Z,1006.44
2018-08-31T10:06:00.796Z,1006.43
2018-08-31T10:06:59.656Z,1006.38
2018-08-31T10:07:57.874Z,1006.49
2018-08-31T10:08:55.564Z,1006.44
2018-08-31T10:09:50.360Z,1006.43
2018-08-31T10:10:51.143Z,1006.37
2018-08-31T10:11:52.444Z,1006.38
2018-08-31T10:12:55.166Z,1006.37
2018-08-31T10:13:57.379Z,1006.31
2018-08-31T10:14:53.378Z,1006.38
2018-08-31T10:16:09.219Z,1006.34
2018-08-31T10:17:03.856Z,1006.34
2018-08-31T10:18:05.989Z,1006.34
2018-08-31T10:19:03.796Z,1006.31
2018-08-31T10:20:01.550Z,1006.31
2018-08-31T10:21:02.377Z,1006.34
2018-08-31T10:22:00.358Z,1006.37
2018-08-31T10:23:01.076Z,1006.41
2018-08-31T10:23:59.333Z,1006.36
2018-08-31T10:24:57.514Z,1006.31
2018-08-31T10:25:59.867Z,1006.3
2018-08-31T10:26:58.510Z,1006.36
2018-08-31T10:27:57.167Z,1006.36
2018-08-31T10:29:09.197Z,1006.35
2018-08-31T10:30:04.140Z,1006.3
2018-08-31T10:31:02.794Z,1006.3
2018-08-31T10:32:05.225Z,1006.27
2018-08-31T10:33:04.318Z,1006.18
2018-08-31T10:34:03.006Z,1006.3
2018-08-31T10:35:00.670Z,1006.36
2018-08-31T10:36:00.322Z,1006.31
2018-08-31T10:37:03.086Z,1006.33
2018-08-31T10:38:03.693Z,1006.24
2018-08-31T10:39:07.165Z,1006.3
2018-08-31T10:40:04.128Z,1006.25
2018-08-31T10:41:23.803Z,1006.3
2018-08-31T10:42:19.467Z,1006.25
2018-08-31T10:43:21.743Z,1006.27
2018-08-31T10:44:34.214Z,1006.28
2018-08-31T10:45:34.760Z,1006.22
2018-08-31T10:46:33.503Z,1006.3
2018-08-31T10:47:35.308Z,1006.24
2018-08-31T10:48:40.377Z,1006.24
2018-08-31T10:49:39.445Z,1006.19
2018-08-31T10:50:39.661Z,1006.25
2018-08-31T10:51:39.341Z,1006.16
2018-08-31T10:52:37.678Z,1006.22
2018-08-31T10:53:51.777Z,1006.25
2018-08-31T10:54:48.678Z,1006.21
2018-08-31T10:55:49.525Z,1006.19
2018-08-31T10:56:49.300Z,1006.3
2018-08-31T10:57:50.245Z,1006.24
2018-08-31T10:58:49.031Z,1006.24
2018-08-31T10:59:49.382Z,1006.22
2018-08-31T11:00:48.685Z,1006.3
2018-08-31T11:01:46.362Z,1006.22
2018-08-31T11:02:44.935Z,1006.25
2018-08-31T11:03:40.797Z,1006.28
2018-08-31T11:04:54.152Z,1006.22
2018-08-31T11:05:51.047Z,1006.24
2018-08-31T11:06:48.833Z,1006.19
2018-08-31T11:07:47.558Z,1006.22
2018-08-31T11:08:46.154Z,1006.16
2018-08-31T11:09:46.640Z,1006.25
2018-08-31T11:10:41.715Z,1006.27
2018-08-31T11:11:44.818Z,1006.18
2018-08-31T11:12:44.150Z,1006.22
2018-08-31T11:13:44.783Z,1006.18
2018-08-31T11:14:42.347Z,1006.3
2018-08-31T11:15:40.381Z,1006.28
2018-08-31T11:16:38.444Z,1006.31
2018-08-31T11:17:36.876Z,1006.27
2018-08-31T11:18:41.934Z,1006.3
2018-08-31T11:19:42.975Z,1006.34
2018-08-31T11:20:41.133Z,1006.33
2018-08-31T11:21:36.888Z,1006.34
2018-08-31T11:22:52.117Z,1006.28
2018-08-31T11:23:49.629Z,1006.18
2018-08-31T11:24:50.857Z,1006.27
2018-08-31T11:25:48.917Z,1006.18
2018-08-31T11:26:47.751Z,1006.2
2018-08-31T11:27:46.792Z,1006.24
2018-08-31T11:28:45.772Z,1006.24
2018-08-31T11:29:47.176Z,1006.23
2018-08-31T11:30:46.009Z,1006.29
2018-08-31T11:31:44.898Z,1006.26
2018-08-31T11:32:49.775Z,1006.24
2018-08-31T11:34:02.675Z,1006.18
2018-08-31T11:35:00.437Z,1006.21
2018-08-31T11:35:58.202Z,1006.27
2018-08-31T11:37:01.964Z,1006.18
2018-08-31T11:38:01.598Z,1006.24
2018-08-31T11:39:00.855Z,1006.26
2018-08-31T11:39:56.347Z,1006.3
2018-08-31T11:40:57.719Z,1006.21
2018-08-31T11:41:59.936Z,1006.17
2018-08-31T11:43:00.089Z,1006.18
2018-08-31T11:43:58.703Z,1006.13
2018-08-31T11:45:08.072Z,1006.17
2018-08-31T11:46:04.309Z,1006.17
2018-08-31T11:47:09.487Z,1006.18
2018-08-31T11:48:10.382Z,1006.18
2018-08-31T11:49:05.177Z,1006.13
2018-08-31T11:50:03.876Z,1006.05
2018-08-31T11:51:18.063Z,1006.24
2018-08-31T11:52:14.070Z,1006.1
2018-08-31T11:53:12.553Z,1006.11
2018-08-31T11:54:20.653Z,1006.17
2018-08-31T11:55:23.649Z,1006.14
2018-08-31T11:56:24.771Z,1006.07
2018-08-31T11:57:22.731Z,1006.11
2018-08-31T11:58:28.538Z,1006.13
2018-08-31T11:59:30.376Z,1006.05
2018-08-31T12:00:28.084Z,1006.13
2018-08-31T12:01:23.244Z,1006.23
2018-08-31T12:02:21.975Z,1006.14
2018-08-31T12:03:38.812Z,1006.16
2018-08-31T12:04:37.630Z,1006.13
2018-08-31T12:05:45.123Z,1006.13
2018-08-31T12:06:43.350Z,1006.17
2018-08-31T12:07:41.199Z,1006.05
2018-08-31T12:08:41.724Z,1006.05
2018-08-31T12:09:40.196Z,1006.05
2018-08-31T12:10:50.023Z,1006.17
2018-08-31T12:11:48.138Z,1006.14
2018-08-31T12:12:45.932Z,1006.16
2018-08-31T12:13:41.334Z,1006.08
2018-08-31T12:14:39.914Z,1006.11
2018-08-31T12:15:38.921Z,1006.16
2018-08-31T12:16:49.090Z,1006.13
2018-08-31T12:17:46.487Z,1006.14
2018-08-31T12:18:45.799Z,1006.1
2018-08-31T12:19:44.883Z,1006.07
2018-08-31T12:20:44.581Z,1006.04
2018-08-31T12:21:43.508Z,1006.05